Attica, Michigan
Current Conditions -  °F | °C
As of 11:33 PM on Saturday 22 Nov 2014 (Local Time) from KD95 Reporting Station
Overcast Overcast  
Wind Chill: 41°   Ceiling: 5500
Heat Index: 46°   Visibility: 7mi
Dew Point: 44°   Wind: 9mph
Humidity: 92%   Direction: 230°SW
Pressure: 29.91"   Gusts: NA
Location:  43.03°N, 83.17°W
Report Text: KD95 230433Z AUTO 23008KT 7SM OVC055 08/07 A2991 RMK AO2 T00780065
Loading
Personal Weather Stations






























Interactive Weather Map New forecast layout! Learn more

10-Day Weather Forecast

Advertisements
Track Severe Weather on mobile